Time;durP1;ratioP1;P1;durP2;ratioP2;P2;SDS_P1;SDS_P2;PMS_P1;PMS_P2;Temp;Humidity;BMP_temperature;BMP_pressure;BME280_temperature;BME280_humidity;BME280_pressure;Samples;Min_cycle;Max_cycle;Signal;HPM_P1;HPM_P2
2022/08/02 00:01:38;;;;;;;7.88;4.90;;;28.40;59.00;;;;;;5113297;28;20019;-76
2022/08/02 00:04:03;;;;;;;6.85;5.18;;;28.30;59.20;;;;;;5113540;28;20024;-76
2022/08/02 00:06:29;;;;;;;6.75;5.00;;;28.30;59.20;;;;;;5095252;28;20395;-76
2022/08/02 00:08:55;;;;;;;6.40;5.00;;;28.30;59.20;;;;;;5112779;28;20026;-77
2022/08/02 00:11:21;;;;;;;7.53;5.43;;;28.30;59.20;;;;;;5113287;28;20034;-76
2022/08/02 00:13:46;;;;;;;6.28;5.00;;;28.20;59.40;;;;;;5113425;28;20049;-77
2022/08/02 00:16:12;;;;;;;7.00;5.20;;;28.20;59.50;;;;;;5094809;28;20473;-75
2022/08/02 00:18:38;;;;;;;5.35;4.85;;;28.10;59.50;;;;;;5113368;28;20028;-75
2022/08/02 00:21:04;;;;;;;6.38;5.22;;;28.10;59.80;;;;;;5113259;28;20027;-76
2022/08/02 00:23:30;;;;;;;5.90;5.30;;;28.20;59.40;;;;;;5113104;28;20038;-75
2022/08/02 00:25:56;;;;;;;6.43;5.25;;;27.70;60.40;;;;;;5113166;28;20031;-76
2022/08/02 00:28:24;;;;;;;8.10;5.60;;;27.70;60.50;;;;;;5113167;28;20023;-75
2022/08/02 00:30:49;;;;;;;6.55;4.95;;;27.80;60.70;;;;;;5113032;28;20031;-76
2022/08/02 00:33:15;;;;;;;6.70;5.10;;;27.70;60.80;;;;;;5113146;28;20026;-76
2022/08/02 00:35:41;;;;;;;7.60;5.20;;;27.40;61.00;;;;;;5112927;28;20028;-76
2022/08/02 00:38:07;;;;;;;7.65;5.65;;;26.60;63.00;;;;;;5112968;28;20035;-76
2022/08/02 00:40:33;;;;;;;6.95;6.03;;;26.50;63.20;;;;;;5112844;28;20055;-76
2022/08/02 00:43:07;;;;;;;8.60;6.70;;;26.90;62.50;;;;;;5112747;28;20103;-76
2022/08/02 00:45:34;;;;;;;7.35;5.60;;;27.30;61.70;;;;;;5112604;28;20536;-76
2022/08/02 00:48:01;;;;;;;6.18;5.25;;;27.60;61.10;;;;;;5113228;28;20478;-75
2022/08/02 00:50:27;;;;;;;7.00;6.30;;;27.40;61.60;;;;;;5094777;28;20494;-76
2022/08/02 00:52:52;;;;;;;6.43;5.82;;;27.40;61.10;;;;;;5112771;28;20415;-74
2022/08/02 00:55:19;;;;;;;6.53;5.80;;;27.60;60.60;;;;;;5112654;28;20501;-75
2022/08/02 00:57:44;;;;;;;7.53;5.90;;;27.80;60.30;;;;;;5112845;28;20024;-75
2022/08/02 01:00:11;;;;;;;8.98;6.78;;;27.80;60.00;;;;;;5112944;28;20034;-75
2022/08/02 01:02:37;;;;;;;7.00;6.18;;;27.80;60.40;;;;;;5112793;28;20054;-75
2022/08/02 01:05:03;;;;;;;7.57;6.78;;;27.80;59.90;;;;;;5112872;28;20091;-76
2022/08/02 01:07:29;;;;;;;9.55;7.53;;;27.60;60.10;;;;;;5112972;28;20366;-75
2022/08/02 01:09:55;;;;;;;9.27;6.82;;;27.40;60.20;;;;;;5094437;28;20474;-75
2022/08/02 01:12:20;;;;;;;8.27;6.57;;;27.20;60.80;;;;;;5112864;28;20359;-75
2022/08/02 01:14:52;;;;;;;7.00;6.30;;;27.20;60.80;;;;;;5094313;28;20037;-75
2022/08/02 01:17:35;;;;;;;8.88;7.53;;;27.20;60.90;;;;;;5112533;28;20106;-75
2022/08/02 01:20:10;;;;;;;7.60;6.63;;;27.10;60.50;;;;;;5113559;28;20073;-75
2022/08/02 01:22:54;;;;;;;7.90;6.53;;;27.10;60.50;;;;;;5116017;28;20401;-75
2022/08/02 01:25:38;;;;;;;7.55;6.75;;;27.20;60.40;;;;;;5116210;28;20371;-75
2022/08/02 01:28:27;;;;;;;6.95;6.25;;;27.20;60.20;;;;;;5116100;28;20022;-75
2022/08/02 01:31:01;;;;;;;7.20;6.22;;;26.80;61.90;;;;;;5115851;28;20019;-75
2022/08/02 01:33:37;;;;;;;7.05;6.35;;;26.20;63.20;;;;;;5116216;28;20445;-75
2022/08/02 01:36:06;;;;;;;7.70;6.82;;;25.90;64.30;;;;;;5115616;28;20473;-76
2022/08/02 01:38:37;;;;;;;7.20;6.50;;;25.90;64.30;;;;;;5116067;28;20067;-76
2022/08/02 01:41:06;;;;;;;7.60;6.82;;;26.30;63.00;;;;;;5116058;28;20024;-75
2022/08/02 01:43:34;;;;;;;9.88;7.53;;;26.40;62.10;;;;;;5097339;28;20554;-75
2022/08/02 01:46:02;;;;;;;7.95;7.15;;;26.50;61.80;;;;;;5115886;28;20032;-75
2022/08/02 01:48:30;;;;;;;10.15;7.78;;;26.50;61.80;;;;;;5097381;28;20015;-75
2022/08/02 01:50:57;;;;;;;7.13;6.43;;;26.60;61.50;;;;;;5115602;28;20024;-75
2022/08/02 01:53:26;;;;;;;9.95;7.13;;;26.60;62.00;;;;;;5115360;28;20358;-76
2022/08/02 01:55:54;;;;;;;8.38;7.50;;;26.40;62.70;;;;;;5115841;28;20493;-75
2022/08/02 01:58:23;;;;;;;8.30;7.45;;;26.50;62.20;;;;;;5115883;28;20067;-75
2022/08/02 02:00:51;;;;;;;7.78;6.95;;;26.70;61.70;;;;;;5115490;28;20031;-75
2022/08/02 02:03:23;;;;;;;8.50;7.28;;;26.80;61.30;;;;;;5115544;28;20031;-75
2022/08/02 02:05:54;;;;;;;9.63;7.05;;;26.90;60.90;;;;;;5115351;28;20071;-75
2022/08/02 02:08:26;;;;;;;8.32;7.20;;;26.90;60.60;;;;;;5115423;28;20047;-75
2022/08/02 02:10:53;;;;;;;9.23;7.30;;;26.80;60.80;;;;;;5115283;28;20035;-75
2022/08/02 02:13:20;;;;;;;8.27;6.82;;;26.70;61.50;;;;;;5115395;28;20098;-75
2022/08/02 02:15:47;;;;;;;10.02;7.90;;;26.80;61.00;;;;;;5115403;28;20027;-75
2022/08/02 02:18:28;;;;;;;9.02;8.13;;;26.70;61.10;;;;;;5115051;28;20470;-75
2022/08/02 02:20:54;;;;;;;8.27;7.30;;;26.80;61.00;;;;;;5115291;28;20038;-76
2022/08/02 02:23:21;;;;;;;8.23;7.32;;;26.50;62.30;;;;;;5115287;28;20023;-75
2022/08/02 02:25:47;;;;;;;8.93;8.02;;;26.30;62.90;;;;;;5114705;28;20385;-76
2022/08/02 02:28:23;;;;;;;9.13;8.05;;;26.40;62.70;;;;;;5115160;28;20396;-76
2022/08/02 02:30:54;;;;;;;9.55;8.50;;;26.50;63.00;;;;;;5114599;28;20024;-76
2022/08/02 02:33:21;;;;;;;9.27;8.38;;;26.50;63.00;;;;;;5114598;28;20031;-75
2022/08/02 02:35:50;;;;;;;9.57;8.10;;;26.40;63.60;;;;;;5114949;28;20374;-75
2022/08/02 02:38:19;;;;;;;9.40;7.32;;;26.40;63.80;;;;;;5114880;28;20030;-75
2022/08/02 02:40:47;;;;;;;10.13;7.57;;;26.40;63.80;;;;;;5114767;28;20031;-76
2022/08/02 02:43:14;;;;;;;9.15;7.40;;;26.10;64.20;;;;;;5114538;28;20040;-75
2022/08/02 02:45:40;;;;;;;8.27;7.43;;;26.40;63.80;;;;;;5114415;28;20027;-75
2022/08/02 02:48:08;;;;;;;8.35;7.40;;;26.50;63.20;;;;;;5114766;28;20027;-75
2022/08/02 02:50:36;;;;;;;10.57;8.00;;;26.70;62.70;;;;;;5114462;28;20363;-75
2022/08/02 02:53:02;;;;;;;9.32;8.27;;;26.90;62.50;;;;;;5114357;28;20031;-76
2022/08/02 02:55:27;;;;;;;8.35;7.47;;;27.00;62.20;;;;;;5114854;28;20020;-76
2022/08/02 02:57:57;;;;;;;8.63;7.60;;;27.00;62.20;;;;;;5114773;28;20058;-76
2022/08/02 03:03:09;;;;;;;9.32;7.70;;;26.80;62.60;;;;;;5114615;28;20033;-75
2022/08/02 03:05:35;;;;;;;9.60;7.43;;;26.90;62.30;;;;;;5114041;28;20386;-75
2022/08/02 03:08:01;;;;;;;10.82;8.13;;;26.90;62.10;;;;;;5114256;28;20530;-76
2022/08/02 03:10:27;;;;;;;9.70;7.00;;;27.00;61.80;;;;;;5114252;28;20024;-75
2022/08/02 03:12:53;;;;;;;9.05;8.15;;;27.10;61.70;;;;;;5114072;28;20027;-75
2022/08/02 03:15:20;;;;;;;8.35;7.47;;;27.10;61.50;;;;;;5113986;28;20034;-75
2022/08/02 03:17:46;;;;;;;8.75;7.75;;;27.00;61.70;;;;;;5114054;28;20103;-76
2022/08/02 03:20:18;;;;;;;8.13;7.30;;;27.00;62.00;;;;;;5114033;28;20401;-76
2022/08/02 03:22:45;;;;;;;8.20;7.03;;;27.00;62.00;;;;;;5114072;28;20023;-75
2022/08/02 03:25:12;;;;;;;9.13;8.23;;;27.00;62.00;;;;;;5095617;28;20031;-75
2022/08/02 03:27:38;;;;;;;8.07;6.95;;;27.00;62.00;;;;;;5113828;28;20051;-76
2022/08/02 03:30:07;;;;;;;8.30;7.28;;;27.00;61.80;;;;;;5113764;28;20023;-76
2022/08/02 03:32:34;;;;;;;9.63;6.97;;;27.10;61.90;;;;;;5095360;28;20019;-75
2022/08/02 03:35:01;;;;;;;8.63;7.45;;;27.10;62.00;;;;;;5113468;28;20027;-75
2022/08/02 03:37:28;;;;;;;8.25;7.45;;;27.10;61.70;;;;;;5113746;28;20160;-76
2022/08/02 03:39:55;;;;;;;8.48;7.03;;;27.20;61.50;;;;;;5113647;28;20106;-76
2022/08/02 03:42:21;;;;;;;10.43;6.97;;;27.10;61.80;;;;;;5112924;28;20072;-76
2022/08/02 03:44:48;;;;;;;7.78;6.97;;;27.10;61.50;;;;;;5113499;28;20039;-75
2022/08/02 03:47:15;;;;;;;8.13;6.85;;;27.20;61.20;;;;;;5113503;28;20020;-76
2022/08/02 03:49:42;;;;;;;8.40;7.40;;;27.10;61.20;;;;;;5113691;28;20047;-75
2022/08/02 03:52:08;;;;;;;8.90;7.75;;;27.00;61.40;;;;;;5113611;28;20031;-76
2022/08/02 03:54:33;;;;;;;8.40;7.35;;;26.70;62.30;;;;;;5113501;28;20076;-75
2022/08/02 03:56:59;;;;;;;8.52;7.43;;;26.60;62.40;;;;;;5113499;28;20076;-75
2022/08/02 03:59:25;;;;;;;9.18;7.97;;;26.70;62.30;;;;;;5113296;28;20019;-75
2022/08/02 04:01:51;;;;;;;8.30;7.18;;;26.80;62.40;;;;;;5113465;28;20042;-75
2022/08/02 04:04:16;;;;;;;12.07;7.75;;;26.80;62.30;;;;;;5113436;28;20027;-75
2022/08/02 04:06:42;;;;;;;8.95;7.28;;;26.90;62.10;;;;;;5113121;28;20040;-75
2022/08/02 04:09:08;;;;;;;9.90;7.82;;;26.90;62.10;;;;;;5113516;28;20100;-76
2022/08/02 04:11:34;;;;;;;9.32;8.32;;;26.90;62.30;;;;;;5113529;28;20027;-76
2022/08/02 04:14:03;;;;;;;8.32;7.43;;;26.90;62.60;;;;;;5113143;28;20016;-76
2022/08/02 04:16:38;;;;;;;9.63;8.07;;;26.90;62.50;;;;;;5113288;28;20030;-75
2022/08/02 04:19:05;;;;;;;9.05;7.22;;;27.00;62.60;;;;;;5113187;28;20046;-75
2022/08/02 04:21:35;;;;;;;8.07;7.00;;;27.10;62.70;;;;;;5113207;28;20113;-75
2022/08/02 04:24:04;;;;;;;8.20;7.40;;;27.10;62.40;;;;;;5113254;28;20031;-75
2022/08/02 04:26:32;;;;;;;8.10;7.30;;;27.20;62.20;;;;;;5113381;28;20482;-75
2022/08/02 04:28:59;;;;;;;9.13;7.80;;;27.20;62.40;;;;;;5113837;28;20028;-75
2022/08/02 04:31:26;;;;;;;7.97;7.18;;;27.30;62.20;;;;;;5113108;28;20023;-75
2022/08/02 04:33:52;;;;;;;8.15;7.05;;;27.30;61.80;;;;;;5113093;28;20022;-75
2022/08/02 04:36:18;;;;;;;9.95;7.07;;;27.30;62.10;;;;;;5112735;28;20027;-75
2022/08/02 04:38:43;;;;;;;9.05;7.60;;;27.40;62.00;;;;;;5113251;28;20039;-76
2022/08/02 04:41:09;;;;;;;9.63;6.88;;;27.40;62.00;;;;;;5113061;28;20107;-75
2022/08/02 04:43:35;;;;;;;9.27;7.40;;;27.50;61.90;;;;;;5112688;28;20477;-76
2022/08/02 04:46:02;;;;;;;9.98;7.18;;;27.60;61.90;;;;;;5113158;28;20032;-76
2022/08/02 04:48:28;;;;;;;8.15;7.35;;;27.60;61.80;;;;;;5112953;28;20031;-76
2022/08/02 04:50:54;;;;;;;7.63;6.63;;;27.70;62.00;;;;;;5112880;28;20019;-75
2022/08/02 04:53:20;;;;;;;8.43;7.53;;;27.70;62.00;;;;;;5113139;28;20424;-75
2022/08/02 04:56:04;;;;;;;7.30;6.45;;;27.70;62.40;;;;;;5116661;28;20424;-75
2022/08/02 04:58:30;;;;;;;7.63;6.85;;;27.60;62.50;;;;;;5116712;28;20038;-75
2022/08/02 05:00:56;;;;;;;10.80;7.35;;;27.70;62.50;;;;;;5116729;28;20024;-75
2022/08/02 05:03:21;;;;;;;8.25;6.60;;;27.70;62.20;;;;;;5116422;28;20024;-75
2022/08/02 05:05:47;;;;;;;7.10;6.32;;;27.90;62.00;;;;;;5116504;28;20115;-75
2022/08/02 05:08:13;;;;;;;6.88;6.18;;;28.00;62.00;;;;;;5117070;28;20478;-75
2022/08/02 05:10:38;;;;;;;8.43;6.53;;;28.10;62.00;;;;;;5098320;28;20027;-76
2022/08/02 05:13:05;;;;;;;7.13;6.03;;;28.10;62.30;;;;;;5116513;28;20106;-77
2022/08/02 05:15:30;;;;;;;7.45;6.38;;;28.20;62.00;;;;;;5116757;28;20020;-75
2022/08/02 05:17:56;;;;;;;11.68;5.55;;;28.20;61.70;;;;;;5116987;28;20420;-76
2022/08/02 05:20:22;;;;;;;7.50;6.00;;;28.20;61.50;;;;;;5116496;28;20024;-76
2022/08/02 05:22:47;;;;;;;7.82;5.97;;;28.20;62.10;;;;;;5116488;28;20114;-75
2022/08/02 05:25:13;;;;;;;8.73;5.90;;;28.20;61.70;;;;;;5116284;28;20044;-75
2022/08/02 05:27:39;;;;;;;6.20;5.60;;;28.40;61.40;;;;;;5116165;28;20015;-76
2022/08/02 05:30:06;;;;;;;6.88;5.32;;;28.50;61.20;;;;;;5116170;28;20102;-75
2022/08/02 05:32:31;;;;;;;9.63;5.43;;;28.70;60.20;;;;;;5115748;28;20031;-75
2022/08/02 05:35:00;;;;;;;7.50;5.28;;;28.70;60.20;;;;;;5121693;27;20023;-75
2022/08/02 05:37:26;;;;;;;6.53;5.75;;;28.80;60.20;;;;;;5122038;27;20026;-76
2022/08/02 05:39:52;;;;;;;7.47;5.20;;;28.90;60.30;;;;;;5124405;27;20023;-77
2022/08/02 05:42:17;;;;;;;6.72;5.72;;;28.90;60.90;;;;;;5125248;27;20080;-77
2022/08/02 05:44:43;;;;;;;8.55;5.63;;;28.90;60.90;;;;;;5103111;28;20043;-75
2022/08/02 05:47:09;;;;;;;8.70;5.70;;;29.00;60.60;;;;;;5114723;28;20024;-75
2022/08/02 05:49:35;;;;;;;6.50;5.60;;;29.00;61.00;;;;;;5114702;28;20020;-75
2022/08/02 05:52:13;;;;;;;6.68;5.40;;;29.10;60.60;;;;;;5113508;28;20489;-76
2022/08/02 05:54:42;;;;;;;7.50;5.30;;;29.20;60.30;;;;;;5115526;28;20020;-75
2022/08/02 05:57:16;;;;;;;6.53;5.30;;;29.40;59.90;;;;;;4760568;28;9999948;-75
2022/08/02 06:00:09;;;;;;;6.25;4.80;;;29.50;60.10;;;;;;5111679;28;20043;-75
2022/08/02 06:02:56;;;;;;;5.22;4.65;;;29.60;58.20;;;;;;5107336;28;20039;-75
2022/08/02 06:05:25;;;;;;;5.70;4.60;;;29.40;59.80;;;;;;5111258;28;20040;-75
2022/08/02 06:07:54;;;;;;;5.65;4.68;;;29.40;57.80;;;;;;5111155;28;20095;-76
2022/08/02 06:10:21;;;;;;;4.88;4.20;;;29.60;57.90;;;;;;5093251;28;20042;-75
2022/08/02 06:13:08;;;;;;;4.68;4.10;;;29.80;57.60;;;;;;5111674;28;20016;-76
2022/08/02 06:15:34;;;;;;;7.30;4.80;;;29.80;57.40;;;;;;5111456;28;20027;-76
2022/08/02 06:18:01;;;;;;;5.32;4.50;;;29.50;58.00;;;;;;5110481;28;20111;-75
2022/08/02 06:20:34;;;;;;;5.20;4.25;;;29.70;57.30;;;;;;5111561;28;20020;-75
2022/08/02 06:23:02;;;;;;;5.88;4.53;;;29.70;57.70;;;;;;5111391;28;20023;-75
2022/08/02 06:25:29;;;;;;;5.43;4.07;;;29.90;57.60;;;;;;5111364;28;20032;-76
2022/08/02 06:27:55;;;;;;;8.18;4.32;;;29.80;57.40;;;;;;5110259;28;20597;-76
2022/08/02 06:30:21;;;;;;;5.75;4.47;;;29.80;58.30;;;;;;5110904;28;20108;-75
2022/08/02 06:32:50;;;;;;;5.75;4.30;;;30.00;58.20;;;;;;5109972;28;20094;-75
2022/08/02 06:35:16;;;;;;;4.78;3.92;;;30.20;58.00;;;;;;5109210;28;20771;-75
2022/08/02 06:37:55;;;;;;;4.82;4.15;;;30.50;58.20;;;;;;5111316;28;20027;-76
2022/08/02 06:40:24;;;;;;;4.97;4.40;;;30.30;58.00;;;;;;5111122;28;20024;-75
2022/08/02 06:43:12;;;;;;;5.75;4.35;;;30.40;58.00;;;;;;5111277;28;20076;-77
2022/08/02 06:45:38;;;;;;;6.10;4.00;;;30.70;57.50;;;;;;5110220;28;20091;-76
2022/08/02 06:48:06;;;;;;;6.43;4.05;;;31.00;56.50;;;;;;5111365;28;20020;-76
2022/08/02 06:50:31;;;;;;;4.93;3.72;;;31.00;56.90;;;;;;5111004;28;20096;-75
2022/08/02 06:52:57;;;;;;;5.30;4.10;;;31.20;56.40;;;;;;5111131;28;20110;-75
2022/08/02 06:55:23;;;;;;;5.15;2.63;;;31.10;55.80;;;;;;5111427;28;20089;-75
2022/08/02 06:57:48;;;;;;;4.88;2.90;;;31.10;51.80;;;;;;5110501;28;20019;-75
2022/08/02 07:00:15;;;;;;;4.40;3.30;;;31.30;51.20;;;;;;5113741;28;20461;-75
2022/08/02 07:02:41;;;;;;;4.30;3.10;;;31.20;53.40;;;;;;5114633;28;20444;-75
2022/08/02 07:05:08;;;;;;;6.65;3.10;;;31.20;52.50;;;;;;5113007;28;20032;-75
2022/08/02 07:07:33;;;;;;;6.75;3.40;;;31.30;50.80;;;;;;5114331;28;20012;-77
2022/08/02 07:10:00;;;;;;;5.00;2.88;;;31.10;52.30;;;;;;5113760;28;20125;-79
2022/08/02 07:12:26;;;;;;;5.70;3.15;;;31.30;52.30;;;;;;5113424;28;20378;-76
2022/08/02 07:14:52;;;;;;;4.93;3.10;;;31.30;51.20;;;;;;5114387;28;20371;-75
2022/08/02 07:17:17;;;;;;;4.07;2.90;;;31.00;50.90;;;;;;5114037;28;20481;-75
2022/08/02 07:19:43;;;;;;;5.82;3.25;;;30.70;52.00;;;;;;5114193;28;20481;-76
2022/08/02 07:22:11;;;;;;;4.28;3.00;;;30.60;53.00;;;;;;5134324;27;20024;-78
2022/08/02 07:24:38;;;;;;;4.65;3.13;;;31.00;52.90;;;;;;4768706;27;10000290;-76
2022/08/02 07:27:04;;;;;;;6.07;3.10;;;31.00;52.30;;;;;;5111143;28;20028;-79
2022/08/02 07:29:30;;;;;;;5.20;3.75;;;30.90;51.30;;;;;;5110491;28;20024;-76
2022/08/02 07:31:55;;;;;;;8.73;3.25;;;31.00;52.10;;;;;;5111929;28;20133;-77
2022/08/02 07:34:21;;;;;;;7.13;3.50;;;30.70;50.90;;;;;;5110377;28;20469;-77
2022/08/02 07:36:47;;;;;;;8.00;3.65;;;30.50;53.30;;;;;;5110667;28;20019;-76
2022/08/02 07:39:13;;;;;;;5.55;3.60;;;30.50;53.20;;;;;;5110033;28;20024;-76
2022/08/02 07:41:39;;;;;;;5.68;3.60;;;30.90;54.20;;;;;;5110208;28;20102;-76
2022/08/02 07:44:04;;;;;;;4.55;3.10;;;31.10;52.70;;;;;;5092189;28;20054;-76
2022/08/02 07:46:32;;;;;;;8.65;3.83;;;31.10;52.10;;;;;;5110185;28;20056;-76
2022/08/02 07:48:58;;;;;;;5.43;3.25;;;31.10;52.20;;;;;;5092412;28;20032;-84
2022/08/02 07:51:23;;;;;;;5.97;3.45;;;30.80;52.20;;;;;;5111153;28;20028;-75
2022/08/02 07:53:49;;;;;;;4.10;3.00;;;30.80;52.40;;;;;;5109818;28;20027;-75
2022/08/02 07:56:15;;;;;;;5.63;3.08;;;31.00;51.40;;;;;;5110828;28;20023;-82
2022/08/02 07:58:41;;;;;;;3.55;2.72;;;30.80;51.10;;;;;;5101077;27;20019;-77
2022/08/02 08:01:07;;;;;;;7.50;3.47;;;31.00;51.50;;;;;;5134095;27;20019;-76
2022/08/02 08:03:33;;;;;;;6.45;3.10;;;31.10;51.10;;;;;;5133917;27;20172;-77
2022/08/02 08:06:00;;;;;;;4.82;2.85;;;31.20;51.20;;;;;;5132929;27;20030;-77
2022/08/02 08:08:26;;;;;;;6.68;3.20;;;31.40;50.80;;;;;;5133872;28;20015;-76
2022/08/02 08:10:52;;;;;;;5.70;2.90;;;31.70;51.00;;;;;;5134071;28;20086;-77
2022/08/02 08:13:17;;;;;;;7.18;3.20;;;31.50;49.70;;;;;;5115959;28;20067;-78
2022/08/02 08:15:44;;;;;;;6.00;3.00;;;31.40;51.10;;;;;;5133098;28;20453;-77
2022/08/02 08:18:10;;;;;;;5.32;3.00;;;32.00;49.80;;;;;;5132008;28;20366;-75
2022/08/02 08:20:36;;;;;;;3.80;2.90;;;32.20;50.00;;;;;;5131634;28;20461;-78
2022/08/02 08:23:02;;;;;;;5.93;3.38;;;32.60;49.90;;;;;;5114674;28;20076;-77
2022/08/02 08:25:28;;;;;;;5.15;3.08;;;32.50;50.20;;;;;;5132887;28;20496;-79
2022/08/02 08:27:54;;;;;;;4.95;3.17;;;32.70;50.00;;;;;;5133459;28;20024;-77
2022/08/02 08:30:21;;;;;;;5.82;3.33;;;32.80;49.30;;;;;;5136874;27;20080;-77
2022/08/02 08:32:47;;;;;;;4.97;3.30;;;32.90;49.70;;;;;;5137759;27;20041;-79
2022/08/02 08:35:13;;;;;;;11.75;3.30;;;33.00;48.80;;;;;;5138031;27;20034;-79
2022/08/02 08:37:39;;;;;;;4.40;3.20;;;33.10;48.60;;;;;;5138105;27;20019;-78
2022/08/02 08:40:09;;;;;;;4.80;3.13;;;33.20;48.60;;;;;;5119730;27;20354;-79
2022/08/02 08:42:36;;;;;;;;;;;33.50;48.80;;;;;;5138300;27;20046;-77
2022/08/02 08:45:02;;;;;;;4.63;3.22;;;33.40;50.50;;;;;;5119283;27;20358;-77
2022/08/02 08:47:37;;;;;;;5.38;3.00;;;33.30;47.10;;;;;;5117399;28;20485;-77
2022/08/02 08:50:10;;;;;;;4.18;2.95;;;33.00;48.50;;;;;;5117682;28;20051;-77
2022/08/02 08:52:42;;;;;;;6.53;2.95;;;33.00;48.40;;;;;;5117115;28;20027;-77
2022/08/02 08:55:10;;;;;;;4.13;3.10;;;32.80;49.20;;;;;;5117240;28;20031;-76
2022/08/02 08:57:41;;;;;;;4.25;3.03;;;33.10;49.70;;;;;;5117079;28;20034;-77
2022/08/02 09:00:08;;;;;;;7.10;3.38;;;33.30;49.10;;;;;;5117245;28;20028;-77
2022/08/02 09:02:35;;;;;;;6.30;3.10;;;33.60;48.70;;;;;;5098679;28;20020;-77
2022/08/02 09:05:01;;;;;;;4.80;3.05;;;33.60;49.20;;;;;;5117117;28;20031;-81
2022/08/02 09:07:27;;;;;;;4.53;3.00;;;33.70;49.50;;;;;;5117203;28;20056;-75
2022/08/02 09:09:53;;;;;;;3.65;2.60;;;33.60;48.00;;;;;;5116895;28;20024;-77
2022/08/02 09:12:24;;;;;;;4.50;2.70;;;33.40;47.60;;;;;;5116714;28;20020;-78
2022/08/02 09:14:50;;;;;;;4.35;2.75;;;33.40;48.40;;;;;;5117027;28;20028;-75
2022/08/02 09:17:17;;;;;;;5.88;3.08;;;33.10;47.40;;;;;;5098200;28;20019;-82
2022/08/02 09:19:43;;;;;;;7.15;2.97;;;33.00;47.20;;;;;;5098670;28;20026;-76
2022/08/02 09:22:10;;;;;;;4.35;3.15;;;32.90;47.40;;;;;;5116236;28;20024;-79
2022/08/02 09:24:45;;;;;;;5.10;3.00;;;33.20;47.90;;;;;;5116364;28;20019;-78
2022/08/02 09:27:16;;;;;;;5.57;3.10;;;33.30;48.60;;;;;;5116735;28;20374;-78
2022/08/02 09:29:50;;;;;;;6.47;3.00;;;33.30;47.40;;;;;;5116310;28;20055;-77
2022/08/02 09:32:17;;;;;;;3.67;2.75;;;33.80;48.00;;;;;;5098060;28;20544;-76
2022/08/02 09:34:51;;;;;;;5.93;3.03;;;34.10;47.40;;;;;;5116490;28;20111;-77
2022/08/02 09:37:28;;;;;;;5.95;2.70;;;34.50;46.20;;;;;;5115992;28;20378;-76
2022/08/02 09:39:56;;;;;;;5.85;2.83;;;34.80;46.30;;;;;;5115624;28;20034;-76
2022/08/02 09:42:22;;;;;;;4.43;2.88;;;34.90;47.80;;;;;;5115309;28;20485;-77
2022/08/02 09:45:01;;;;;;;4.82;3.00;;;34.90;45.70;;;;;;5132204;27;20055;-76
2022/08/02 09:47:28;;;;;;;6.20;2.97;;;35.10;47.50;;;;;;5136485;27;20027;-77
2022/08/02 09:49:55;;;;;;;3.65;2.58;;;35.10;46.90;;;;;;5118254;27;20488;-78
2022/08/02 09:52:31;;;;;;;5.80;2.90;;;34.80;46.20;;;;;;5136916;27;20027;-77
2022/08/02 09:55:07;;;;;;;3.70;2.80;;;34.90;47.40;;;;;;5136482;27;20126;-77
2022/08/02 09:57:36;;;;;;;3.60;2.63;;;35.00;46.70;;;;;;4409722;27;10000736;-78
2022/08/02 10:00:09;;;;;;;19.37;17.97;;;35.10;47.20;;;;;;5116068;28;20102;-77
2022/08/02 10:02:34;;;;;;;8.85;2.97;;;35.20;47.60;;;;;;5116105;28;20024;-78
2022/08/02 10:05:00;;;;;;;3.78;3.00;;;35.40;46.80;;;;;;5115555;28;20069;-78
2022/08/02 10:07:26;;;;;;;3.80;3.08;;;35.80;48.10;;;;;;5097405;28;20023;-78
2022/08/02 10:09:52;;;;;;;6.50;3.20;;;35.90;46.30;;;;;;5097073;28;20020;-78
2022/08/02 10:12:19;;;;;;;3.70;2.80;;;35.80;48.80;;;;;;5115670;28;20034;-79
2022/08/02 10:14:46;;;;;;;4.97;2.90;;;35.80;45.50;;;;;;5097218;28;20077;-77
2022/08/02 10:17:12;;;;;;;6.07;2.80;;;35.80;48.60;;;;;;5115442;28;20023;-77
2022/08/02 10:19:38;;;;;;;9.43;3.40;;;36.00;46.10;;;;;;5115950;28;20022;-79
2022/08/02 10:22:08;;;;;;;5.53;2.90;;;35.50;46.30;;;;;;5115877;28;20489;-78
2022/08/02 10:24:36;;;;;;;4.97;2.97;;;35.30;46.80;;;;;;5115333;28;20024;-76
2022/08/02 10:27:03;;;;;;;4.63;2.90;;;35.10;47.10;;;;;;5115472;28;20058;-76
2022/08/02 10:29:33;;;;;;;3.70;2.80;;;35.30;47.00;;;;;;5115232;28;20016;-77
2022/08/02 10:32:15;;;;;;;9.65;3.00;;;35.80;47.10;;;;;;5114897;28;20032;-77
2022/08/02 10:34:55;;;;;;;5.07;2.70;;;36.20;47.60;;;;;;5090648;28;20030;-77
2022/08/02 10:37:31;;;;;;;3.75;2.60;;;36.80;47.30;;;;;;5115305;28;20039;-79
2022/08/02 10:39:57;;;;;;;5.40;3.10;;;37.00;46.40;;;;;;5097497;28;20090;-78
2022/08/02 10:42:42;;;;;;;4.70;2.72;;;37.10;46.70;;;;;;5115029;28;20023;-79
2022/08/02 10:45:10;;;;;;;4.63;3.30;;;37.30;46.40;;;;;;5115391;28;20467;-79
2022/08/02 10:47:35;;;;;;;4.65;2.95;;;37.40;46.10;;;;;;5114911;28;20015;-79
2022/08/02 10:50:02;;;;;;;3.92;2.80;;;37.30;47.20;;;;;;5115098;28;20034;-85
2022/08/02 10:52:31;;;;;;;5.40;2.53;;;37.20;47.30;;;;;;5096232;28;20026;-77
2022/08/02 10:55:16;;;;;;;4.00;2.80;;;37.00;46.70;;;;;;5114410;28;20112;-77
2022/08/02 10:57:42;;;;;;;4.85;2.80;;;37.30;46.90;;;;;;5115024;28;20047;-77
2022/08/02 11:00:26;;;;;;;5.80;2.90;;;37.60;47.10;;;;;;5115044;28;20371;-77
2022/08/02 11:02:52;;;;;;;3.95;2.75;;;37.60;46.00;;;;;;5114732;28;20024;-79
2022/08/02 11:05:29;;;;;;;4.55;2.88;;;37.50;47.00;;;;;;5114476;28;20035;-77
2022/08/02 11:07:55;;;;;;;5.43;2.50;;;37.40;47.30;;;;;;5114653;28;20022;-77
2022/08/02 11:10:26;;;;;;;3.80;2.70;;;37.20;46.20;;;;;;5114507;28;20032;-78
2022/08/02 11:13:25;;;;;;;3.85;2.47;;;36.80;46.60;;;;;;5096006;28;20020;-77
2022/08/02 11:15:56;;;;;;;5.35;2.55;;;36.70;47.50;;;;;;5114298;28;20020;-77
2022/08/02 11:18:42;;;;;;;3.47;2.60;;;36.60;47.70;;;;;;5114583;28;20016;-79
2022/08/02 11:21:19;;;;;;;4.55;2.92;;;36.70;46.80;;;;;;5113947;28;20024;-80
2022/08/02 11:23:45;;;;;;;5.75;2.50;;;36.80;47.10;;;;;;5096041;28;20036;-77
2022/08/02 11:26:29;;;;;;;5.20;2.50;;;36.60;46.60;;;;;;5114032;28;20042;-77
2022/08/02 11:28:56;;;;;;;4.45;2.60;;;36.50;47.10;;;;;;5114125;28;20118;-77
2022/08/02 11:31:22;;;;;;;4.57;2.50;;;36.50;48.30;;;;;;5114205;28;20024;-77
2022/08/02 11:33:49;;;;;;;3.97;2.30;;;36.70;46.60;;;;;;5113996;28;20023;-79
2022/08/02 11:36:16;;;;;;;3.58;2.50;;;36.80;47.40;;;;;;5114210;28;20081;-78
2022/08/02 11:38:42;;;;;;;3.78;2.53;;;37.00;47.40;;;;;;5113901;28;20024;-77
2022/08/02 11:41:17;;;;;;;2.90;2.13;;;36.70;45.20;;;;;;5113806;28;20089;-76
2022/08/02 11:43:43;;;;;;;3.75;2.45;;;36.70;46.10;;;;;;5113820;28;20468;-77
2022/08/02 11:46:15;;;;;;;3.45;2.40;;;36.90;46.50;;;;;;5095391;28;20036;-78
2022/08/02 11:48:42;;;;;;;3.90;2.60;;;37.10;46.80;;;;;;5113597;28;20100;-78
2022/08/02 11:51:13;;;;;;;3.72;2.50;;;37.40;47.30;;;;;;5113902;28;20019;-78
2022/08/02 11:53:46;;;;;;;4.00;2.78;;;37.40;45.70;;;;;;5113959;28;20024;-78
2022/08/02 11:56:14;;;;;;;4.82;2.70;;;37.30;48.20;;;;;;5113664;28;20070;-77
2022/08/02 11:58:40;;;;;;;3.75;2.30;;;36.80;45.60;;;;;;5113847;28;20106;-77
2022/08/02 12:01:06;;;;;;;4.10;2.60;;;36.40;45.60;;;;;;5113605;28;20073;-78
2022/08/02 12:03:39;;;;;;;3.58;2.40;;;36.40;47.50;;;;;;5094621;28;20035;-77
2022/08/02 12:06:05;;;;;;;6.25;2.45;;;36.60;46.60;;;;;;5095320;28;20038;-80
2022/08/02 12:08:32;;;;;;;6.30;2.58;;;36.60;45.10;;;;;;5113929;28;20478;-77
2022/08/02 12:11:01;;;;;;;5.15;2.33;;;36.00;45.40;;;;;;5113524;28;20055;-77
2022/08/02 12:13:27;;;;;;;4.95;2.72;;;35.40;46.10;;;;;;5113486;28;20024;-78
2022/08/02 12:19:17;;;;;;;3.30;2.40;;;35.70;47.20;;;;;;5094900;28;20023;-78
2022/08/02 12:21:32;;;;;;;4.35;2.55;;;36.20;46.10;;;;;;5113666;28;20042;-77
2022/08/02 12:23:58;;;;;;;3.33;2.47;;;36.40;46.80;;;;;;5113333;28;20024;-77
2022/08/02 12:26:24;;;;;;;4.00;2.38;;;36.50;46.40;;;;;;5113158;28;20125;-77
2022/08/02 12:28:56;;;;;;;3.95;2.35;;;36.60;46.70;;;;;;5113002;28;20026;-78
2022/08/02 12:31:41;;;;;;;4.03;2.50;;;36.70;46.80;;;;;;5113579;28;20064;-78
2022/08/02 12:34:17;;;;;;;4.47;2.80;;;36.40;47.70;;;;;;5078810;28;20034;-78
2022/08/02 12:36:55;;;;;;;3.33;2.58;;;36.50;46.60;;;;;;5113545;28;20027;-78
2022/08/02 12:39:31;;;;;;;4.18;2.25;;;36.80;47.90;;;;;;5113876;28;20551;-79
2022/08/02 12:41:57;;;;;;;3.08;2.25;;;37.00;47.40;;;;;;5113607;28;20023;-77
2022/08/02 12:44:23;;;;;;;4.07;2.33;;;37.20;46.70;;;;;;5113287;28;20048;-77
2022/08/02 12:47:02;;;;;;;2.88;2.00;;;36.90;46.50;;;;;;5113271;28;20481;-77
2022/08/02 12:49:28;;;;;;;3.63;2.00;;;36.80;46.80;;;;;;5095111;28;20024;-76
2022/08/02 12:51:54;;;;;;;2.67;1.70;;;37.00;46.20;;;;;;5113276;28;20051;-79
2022/08/02 12:54:23;;;;;;;2.97;1.90;;;36.70;45.50;;;;;;5095319;28;20504;-89
2022/08/02 12:56:49;;;;;;;2.92;1.90;;;36.40;45.70;;;;;;5095354;28;20118;-76
2022/08/02 12:59:16;;;;;;;2.75;1.70;;;36.10;46.10;;;;;;5113124;28;20077;-84